createdAt,value
2023-02-24T00:01:13.000Z,2.2
2023-02-24T00:02:29.000Z,2.5
2023-02-24T00:03:44.000Z,2.3
2023-02-24T00:05:00.000Z,2
2023-02-24T00:06:16.000Z,2
2023-02-24T00:07:32.000Z,2.5
2023-02-24T00:08:48.000Z,2.6
2023-02-24T00:10:04.868Z,2.9
2023-02-24T00:11:20.000Z,2.1
2023-02-24T00:12:36.000Z,2.8
2023-02-24T00:13:53.000Z,3.1
2023-02-24T00:15:09.448Z,2.6
2023-02-24T00:16:25.000Z,3.1
2023-02-24T00:17:41.000Z,2.2
2023-02-24T00:24:02.000Z,1.7
2023-02-24T00:25:17.000Z,2.4
2023-02-24T00:26:32.000Z,2.2
2023-02-24T00:27:48.000Z,2.7
2023-02-24T00:29:04.000Z,2.7
2023-02-24T00:30:21.000Z,2.5
2023-02-24T00:31:37.000Z,1.9
2023-02-24T00:32:53.000Z,2.1
2023-02-24T00:34:09.000Z,2.4
2023-02-24T00:35:25.000Z,2.1
2023-02-24T00:36:41.000Z,2.3
2023-02-24T00:37:57.000Z,2.6
2023-02-24T00:39:13.000Z,2.5
2023-02-24T00:40:28.000Z,2.2
2023-02-24T00:41:44.000Z,2.4
2023-02-24T00:43:00.000Z,2.6
2023-02-24T00:44:16.000Z,2.6
2023-02-24T00:45:32.000Z,2.2
2023-02-24T00:46:49.189Z,2.2
2023-02-24T00:48:05.341Z,2.1
2023-02-24T00:49:21.488Z,2.5
2023-02-24T00:50:37.000Z,2.6
2023-02-24T00:51:53.000Z,1.8
2023-02-24T00:53:09.000Z,2.9
2023-02-24T00:54:25.000Z,2.5
2023-02-24T00:55:42.213Z,2.4
2023-02-24T00:56:57.000Z,2.2
2023-02-24T00:58:13.000Z,2.1
2023-02-24T00:59:29.000Z,2.4
2023-02-24T01:00:45.000Z,1.9
2023-02-24T01:02:01.000Z,1.9
2023-02-24T01:03:17.000Z,2.9
2023-02-24T01:04:34.000Z,2.3
2023-02-24T01:05:49.000Z,2.6
2023-02-24T01:07:04.000Z,2.1
2023-02-24T01:08:20.000Z,2.6
2023-02-24T01:09:35.912Z,2.7
2023-02-24T01:10:50.000Z,2.5
2023-02-24T01:12:06.000Z,2.2
2023-02-24T01:13:23.000Z,2.3
2023-02-24T01:15:55.665Z,2.3
2023-02-24T01:17:11.000Z,2.7
2023-02-24T01:18:27.000Z,2.4
2023-02-24T01:21:00.000Z,1.9
2023-02-24T01:22:16.000Z,2.3
2023-02-24T01:24:48.692Z,2.2
2023-02-24T01:26:04.000Z,3
2023-02-24T01:27:19.000Z,3.3
2023-02-24T01:28:35.174Z,2.7
2023-02-24T01:29:51.319Z,3
2023-02-24T01:31:07.465Z,2.2
2023-02-24T01:32:23.000Z,2.7
2023-02-24T01:33:38.778Z,2.4
2023-02-24T01:34:54.000Z,2.5
2023-02-24T01:37:26.000Z,3
2023-02-24T01:38:43.000Z,2.4
2023-02-24T01:39:59.515Z,2.9
2023-02-24T01:41:15.000Z,1.7
2023-02-24T01:42:31.000Z,1.8
2023-02-24T01:43:47.952Z,2.8
2023-02-24T01:45:03.000Z,2.2
2023-02-24T01:46:20.254Z,2.7
2023-02-24T01:47:36.000Z,2.4
2023-02-24T01:48:52.539Z,2.3
2023-02-24T01:50:07.000Z,2
2023-02-24T01:51:23.000Z,2.4
2023-02-24T01:53:56.152Z,2.9
2023-02-24T01:55:12.286Z,2.3
2023-02-24T01:56:28.438Z,2.3
2023-02-24T01:59:00.732Z,2.1
2023-02-24T02:00:15.906Z,2.6
2023-02-24T02:01:30.000Z,2.5
2023-02-24T02:02:46.000Z,1.8
2023-02-24T02:04:03.000Z,2.6
2023-02-24T02:06:35.653Z,2.4
2023-02-24T02:07:51.000Z,2.4
2023-02-24T02:09:07.000Z,2
2023-02-24T02:11:40.000Z,1.9
2023-02-24T02:12:56.397Z,1.9
2023-02-24T02:14:12.000Z,2.3
2023-02-24T02:16:44.828Z,2.6
2023-02-24T02:17:59.000Z,2.2
2023-02-24T02:19:15.000Z,2.4
2023-02-24T02:21:48.000Z,2.3
2023-02-24T02:23:04.000Z,2.7
2023-02-24T02:25:36.000Z,1.8
2023-02-24T02:26:52.000Z,2.2
2023-02-24T02:28:09.165Z,2.6
2023-02-24T02:29:25.000Z,2.3
2023-02-24T02:30:41.000Z,2.6
2023-02-24T02:31:57.000Z,2.7
2023-02-24T02:33:13.760Z,2.5
2023-02-24T02:34:28.000Z,2
2023-02-24T02:35:44.000Z,2.1
2023-02-24T02:37:01.216Z,1.9
2023-02-24T02:40:49.000Z,2.2
2023-02-24T02:42:05.802Z,2.2
2023-02-24T02:44:37.000Z,2.6
2023-02-24T02:45:54.000Z,3
2023-02-24T02:47:10.000Z,1.8
2023-02-24T02:48:26.000Z,1.6
2023-02-24T02:49:42.000Z,2.2
2023-02-24T02:53:29.000Z,2
2023-02-24T02:54:46.000Z,2
2023-02-24T02:56:02.000Z,2.4
2023-02-24T02:57:18.580Z,2.3
2023-02-24T02:58:34.000Z,2.9
2023-02-24T02:59:50.000Z,2.5
2023-02-24T03:01:06.000Z,2.7
2023-02-24T03:02:22.000Z,2.3
2023-02-24T03:03:39.000Z,2.6
2023-02-24T03:06:11.000Z,2.8
2023-02-24T03:07:26.000Z,1.9
2023-02-24T03:08:42.915Z,2.1
2023-02-24T03:09:58.000Z,2.7
2023-02-24T03:11:15.207Z,2.2
2023-02-24T03:12:31.000Z,2.3
2023-02-24T03:13:47.000Z,2.1
2023-02-24T03:15:03.000Z,1.8
2023-02-24T03:16:19.000Z,2
2023-02-24T03:18:51.000Z,2.5
2023-02-24T03:20:08.000Z,2.2
2023-02-24T03:21:24.000Z,2.8
2023-02-24T03:22:40.000Z,2.8
2023-02-24T03:25:11.845Z,2.7
2023-02-24T03:26:27.000Z,2.7
2023-02-24T03:27:44.144Z,2.2
2023-02-24T03:29:00.000Z,2.3
2023-02-24T03:31:32.000Z,2
2023-02-24T03:32:48.000Z,2.3
2023-02-24T03:34:04.000Z,2.3
2023-02-24T03:35:21.017Z,2.4
2023-02-24T03:36:36.000Z,2.2
2023-02-24T03:37:53.000Z,2.4
2023-02-24T03:39:08.000Z,2.7
2023-02-24T03:40:23.000Z,2.5
2023-02-24T03:41:38.000Z,2.3
2023-02-24T03:42:53.000Z,2.7
2023-02-24T03:44:09.000Z,3
2023-02-24T03:45:26.000Z,2.6
2023-02-24T03:46:42.000Z,2.7
2023-02-24T03:47:58.000Z,3.1
2023-02-24T03:49:14.000Z,2.7
2023-02-24T03:50:30.000Z,2.8
2023-02-24T03:51:46.000Z,2.3
2023-02-24T03:53:02.000Z,2.3
2023-02-24T03:54:19.309Z,2.6
2023-02-24T03:55:34.000Z,2.3
2023-02-24T03:56:49.000Z,2.5
2023-02-24T03:58:05.000Z,2.3
2023-02-24T03:59:21.000Z,2.7
2023-02-24T04:00:37.000Z,2.3
2023-02-24T04:01:53.000Z,2.5
2023-02-24T04:03:10.000Z,2.4
2023-02-24T04:04:26.000Z,2.4
2023-02-24T04:05:42.000Z,2.7
2023-02-24T04:06:58.000Z,2.4
2023-02-24T04:08:14.000Z,2.1
2023-02-24T04:09:29.000Z,2.9
2023-02-24T04:10:45.000Z,2.8
2023-02-24T04:12:01.000Z,2.7
2023-02-24T04:13:17.000Z,2.1
2023-02-24T04:14:33.000Z,3
2023-02-24T04:15:49.000Z,2.3
2023-02-24T04:17:06.038Z,2.1
2023-02-24T04:18:21.000Z,2.5
2023-02-24T04:19:38.000Z,3.2
2023-02-24T04:20:54.000Z,2.3
2023-02-24T04:22:10.000Z,2.3
2023-02-24T04:23:26.767Z,2.1
2023-02-24T04:24:42.000Z,2.4
2023-02-24T04:25:58.000Z,2.4
2023-02-24T04:27:13.000Z,2.3
2023-02-24T04:28:30.000Z,2.4
2023-02-24T04:29:46.515Z,2.9
2023-02-24T04:31:02.000Z,2.6
2023-02-24T04:32:18.807Z,2.7
2023-02-24T04:33:34.000Z,2.6
2023-02-24T04:34:50.000Z,2.5
2023-02-24T04:36:06.274Z,2.3
2023-02-24T04:37:21.000Z,2.9
2023-02-24T04:38:36.000Z,2.5
2023-02-24T04:39:51.000Z,2.7
2023-02-24T04:41:07.000Z,3.2
2023-02-24T04:42:23.000Z,3.7
2023-02-24T04:43:39.000Z,2.4
2023-02-24T04:44:56.000Z,3.5
2023-02-24T04:46:12.000Z,2.9
2023-02-24T04:47:28.665Z,2.6
2023-02-24T04:48:44.000Z,2.9
2023-02-24T04:50:00.000Z,3.3
2023-02-24T04:51:16.000Z,2.7
2023-02-24T04:52:33.000Z,2.5
2023-02-24T04:53:49.000Z,3.2
2023-02-24T04:55:05.000Z,2.3
2023-02-24T04:56:20.000Z,3
2023-02-24T04:57:36.000Z,2.8
2023-02-24T04:58:53.002Z,3.1
2023-02-24T05:00:08.000Z,3.7
2023-02-24T05:01:25.000Z,2.9
2023-02-24T05:02:41.000Z,3.6
2023-02-24T05:03:57.000Z,3.3
2023-02-24T05:05:12.000Z,3.4
2023-02-24T05:06:27.000Z,3.4
2023-02-24T05:07:42.000Z,3.1
2023-02-24T05:08:58.000Z,3.3
2023-02-24T05:10:14.000Z,2.8
2023-02-24T05:11:30.000Z,2.9
2023-02-24T05:12:46.000Z,3.4
2023-02-24T05:14:02.000Z,3.5
2023-02-24T05:15:18.000Z,2.3
2023-02-24T05:16:35.145Z,3
2023-02-24T05:17:51.000Z,3.1
2023-02-24T05:19:07.000Z,3.3
2023-02-24T05:20:23.000Z,3.7
2023-02-24T05:21:39.000Z,2.3
2023-02-24T05:22:55.000Z,3.4
2023-02-24T05:24:11.000Z,2.4
2023-02-24T05:25:26.000Z,3.5
2023-02-24T05:26:43.000Z,3
2023-02-24T05:27:59.000Z,3.2
2023-02-24T05:29:15.000Z,3
2023-02-24T05:31:47.000Z,2.9
2023-02-24T05:33:03.000Z,3.6
2023-02-24T05:34:19.000Z,4
2023-02-24T05:35:35.000Z,3.5
2023-02-24T05:36:50.000Z,4
2023-02-24T05:38:05.000Z,3.6
2023-02-24T05:39:20.000Z,4.1
2023-02-24T05:40:36.000Z,3.5
2023-02-24T05:41:52.000Z,4.2
2023-02-24T05:43:09.000Z,3.1
2023-02-24T05:44:25.000Z,3.2
2023-02-24T05:45:41.000Z,3.5
2023-02-24T05:46:57.000Z,3.9
2023-02-24T05:48:12.000Z,3.6
2023-02-24T05:49:28.000Z,3.7
2023-02-24T05:50:45.000Z,3.7
2023-02-24T05:52:01.000Z,4
2023-02-24T05:53:17.000Z,4.5
2023-02-24T05:54:33.000Z,3.8
2023-02-24T05:55:49.000Z,5.2
2023-02-24T05:57:05.000Z,3.6
2023-02-24T05:58:21.000Z,4
2023-02-24T05:59:38.000Z,4.2
2023-02-24T06:00:54.000Z,3.9
2023-02-24T06:02:10.000Z,3.1
2023-02-24T06:03:26.000Z,3.7
2023-02-24T06:04:41.000Z,3.2
2023-02-24T06:05:56.000Z,3.3
2023-02-24T06:07:12.000Z,4
2023-02-24T06:08:29.000Z,4
2023-02-24T06:09:44.000Z,3
2023-02-24T06:10:59.000Z,3.7
2023-02-24T06:12:15.000Z,4
2023-02-24T06:13:31.000Z,3.7
2023-02-24T06:14:47.000Z,3.1
2023-02-24T06:16:04.000Z,3.3
2023-02-24T06:17:20.000Z,3.4
2023-02-24T06:18:36.000Z,4.6
2023-02-24T06:19:52.000Z,3.9
2023-02-24T06:21:08.000Z,3.7
2023-02-24T06:22:24.000Z,3.7
2023-02-24T06:23:40.000Z,3.7
2023-02-24T06:24:57.000Z,3.8
2023-02-24T06:26:13.000Z,3
2023-02-24T06:27:28.000Z,3.8
2023-02-24T06:28:44.000Z,2.7
2023-02-24T06:30:00.000Z,3.2
2023-02-24T06:31:16.000Z,3.6
2023-02-24T06:32:32.000Z,3.2
2023-02-24T06:33:49.000Z,2.8
2023-02-24T06:35:05.495Z,3.3
2023-02-24T06:36:20.000Z,2.9
2023-02-24T06:37:35.000Z,2.5
2023-02-24T06:38:51.000Z,3.6
2023-02-24T06:40:07.000Z,2.6
2023-02-24T06:41:24.000Z,2.3
2023-02-24T06:42:39.000Z,2.8
2023-02-24T06:43:54.000Z,2.4
2023-02-24T06:45:10.000Z,2.6
2023-02-24T06:46:26.000Z,2.8
2023-02-24T06:47:42.000Z,2.6
2023-02-24T06:48:58.000Z,3
2023-02-24T06:50:15.000Z,2.7
2023-02-24T06:51:31.000Z,3.6
2023-02-24T06:52:47.000Z,2.4
2023-02-24T06:54:03.000Z,2
2023-02-24T06:55:19.000Z,3
2023-02-24T06:56:35.000Z,2.9
2023-02-24T06:57:52.000Z,2.6
2023-02-24T06:59:08.000Z,2.4
2023-02-24T07:00:23.000Z,2.6
2023-02-24T07:01:39.000Z,2.7
2023-02-24T07:02:55.000Z,2
2023-02-24T07:04:11.000Z,2.7
2023-02-24T07:05:27.000Z,2.6
2023-02-24T07:06:44.000Z,2.6
2023-02-24T07:08:00.000Z,2.4
2023-02-24T07:09:15.000Z,2.8
2023-02-24T07:10:30.000Z,2.2
2023-02-24T07:11:45.000Z,2
2023-02-24T07:13:00.000Z,2.2
2023-02-24T07:14:17.000Z,2.4
2023-02-24T07:15:33.000Z,1.9
2023-02-24T07:16:49.000Z,2.5
2023-02-24T07:18:05.000Z,2.1
2023-02-24T07:19:21.000Z,1.6
2023-02-24T07:20:37.000Z,1.7
2023-02-24T07:21:53.000Z,1.9
2023-02-24T07:23:10.000Z,2.1
2023-02-24T07:24:26.000Z,2.4
2023-02-24T07:25:42.000Z,2.2
2023-02-24T07:26:58.000Z,2.8
2023-02-24T07:28:14.000Z,2.5
2023-02-24T07:29:29.000Z,2.5
2023-02-24T07:30:45.000Z,2.1
2023-02-24T07:32:02.000Z,2.8
2023-02-24T07:33:18.000Z,2.9
2023-02-24T07:34:34.000Z,1.8
2023-02-24T07:35:50.000Z,2
2023-02-24T07:37:06.000Z,1.6
2023-02-24T07:38:21.000Z,2.1
2023-02-24T07:39:37.000Z,1.9
2023-02-24T07:40:52.000Z,2.2
2023-02-24T07:42:07.000Z,1.5
2023-02-24T07:43:23.000Z,1.8
2023-02-24T07:44:39.000Z,1.7
2023-02-24T07:47:11.000Z,1.9
2023-02-24T07:49:44.000Z,2.4
2023-02-24T07:51:00.000Z,2.3
2023-02-24T07:52:16.000Z,2.8
2023-02-24T07:53:32.000Z,2.2
2023-02-24T07:54:48.000Z,2.7
2023-02-24T07:56:04.000Z,2.8
2023-02-24T07:57:20.000Z,2.7
2023-02-24T07:58:35.000Z,2.9
2023-02-24T07:59:51.000Z,3.4
2023-02-24T08:01:07.000Z,2.9
2023-02-24T08:02:23.000Z,2.7
2023-02-24T08:03:39.000Z,3.2
2023-02-24T08:04:56.000Z,2.9
2023-02-24T08:06:12.000Z,4.1
2023-02-24T08:07:28.000Z,3.1
2023-02-24T08:08:44.000Z,3.2
2023-02-24T08:10:00.000Z,4.4
2023-02-24T08:11:15.000Z,3.2
2023-02-24T08:12:30.000Z,3.7
2023-02-24T08:13:47.000Z,3.5
2023-02-24T08:15:03.000Z,4.1
2023-02-24T08:16:19.000Z,4.4
2023-02-24T08:17:35.000Z,4.5
2023-02-24T08:18:51.000Z,5.1
2023-02-24T08:20:07.000Z,4.3
2023-02-24T08:21:24.000Z,4.7
2023-02-24T08:22:40.000Z,5
2023-02-24T08:23:56.000Z,5.3
2023-02-24T08:25:12.000Z,4.2
2023-02-24T08:26:28.000Z,5.6
2023-02-24T08:27:44.000Z,5.9
2023-02-24T08:29:00.000Z,6
2023-02-24T08:30:16.000Z,6.3
2023-02-24T08:31:32.000Z,6.3
2023-02-24T08:32:48.000Z,6.2
2023-02-24T08:34:04.000Z,5.1
2023-02-24T08:35:20.000Z,5.5
2023-02-24T08:36:36.000Z,5.5
2023-02-24T08:37:51.000Z,6.3
2023-02-24T08:39:07.000Z,6.4
2023-02-24T08:40:22.000Z,6
2023-02-24T08:41:37.000Z,6.1
2023-02-24T08:42:53.000Z,5.9
2023-02-24T08:44:09.000Z,5.8
2023-02-24T08:45:25.000Z,6.4
2023-02-24T08:46:42.000Z,5.8
2023-02-24T08:47:58.000Z,6.2
2023-02-24T08:49:14.000Z,6.3
2023-02-24T08:50:30.000Z,6.2
2023-02-24T08:51:46.854Z,7
2023-02-24T08:53:02.000Z,6.2
2023-02-24T08:54:18.000Z,7.5
2023-02-24T08:55:35.000Z,6.9
2023-02-24T08:56:51.000Z,7.5
2023-02-24T08:58:06.607Z,8.2
2023-02-24T08:59:22.000Z,7.3
2023-02-24T09:00:38.000Z,8
2023-02-24T09:01:54.000Z,7.6
2023-02-24T09:03:10.000Z,7.4
2023-02-24T09:04:27.000Z,7.7
2023-02-24T09:05:43.000Z,8.8
2023-02-24T09:06:58.000Z,7.7
2023-02-24T09:08:13.000Z,8.4
2023-02-24T09:09:29.000Z,7.6
2023-02-24T09:10:45.000Z,7.5
2023-02-24T09:12:01.000Z,7
2023-02-24T09:13:16.000Z,7.4
2023-02-24T09:14:32.000Z,7.4
2023-02-24T09:15:48.000Z,7.4
2023-02-24T09:17:04.000Z,6.9
2023-02-24T09:18:20.000Z,7.2
2023-02-24T09:19:36.000Z,8.4
2023-02-24T09:20:53.000Z,8.3
2023-02-24T09:22:09.000Z,8.1
2023-02-24T09:23:25.000Z,8.2
2023-02-24T09:24:41.000Z,6.1
2023-02-24T09:25:57.000Z,6.3
2023-02-24T09:27:13.000Z,7.4
2023-02-24T09:28:29.000Z,6.4
2023-02-24T09:29:45.000Z,7.4
2023-02-24T09:31:01.531Z,6.5
2023-02-24T09:32:17.000Z,7.2
2023-02-24T09:33:33.000Z,7.3
2023-02-24T09:34:49.000Z,7.1
2023-02-24T09:36:05.000Z,7.6
2023-02-24T09:37:22.000Z,7.3
2023-02-24T09:38:37.436Z,7.2
2023-02-24T09:39:52.000Z,6.9
2023-02-24T09:41:07.000Z,6.9
2023-02-24T09:42:22.933Z,6.2
2023-02-24T09:43:38.000Z,6.3
2023-02-24T09:44:55.000Z,5.5
2023-02-24T09:46:11.000Z,7.2
2023-02-24T09:47:27.000Z,6.4
2023-02-24T09:48:43.000Z,5.2
2023-02-24T09:49:59.000Z,6.4
2023-02-24T09:51:15.000Z,5.6
2023-02-24T09:52:31.000Z,6.4
2023-02-24T09:53:48.000Z,6.7
2023-02-24T09:55:04.413Z,5.8
2023-02-24T09:56:20.554Z,6.3
2023-02-24T09:57:36.000Z,6.4
2023-02-24T09:58:51.000Z,6
2023-02-24T10:00:07.000Z,6.9
2023-02-24T10:01:23.000Z,6.4
2023-02-24T10:02:39.000Z,6.2
2023-02-24T10:03:55.470Z,6.8
2023-02-24T10:05:11.000Z,7.1
2023-02-24T10:06:27.000Z,5.7
2023-02-24T10:07:42.000Z,7.8
2023-02-24T10:08:58.096Z,7
2023-02-24T10:10:14.241Z,5.8
2023-02-24T10:11:29.000Z,5.7
2023-02-24T10:12:44.574Z,7
2023-02-24T10:14:00.000Z,6.7
2023-02-24T10:15:16.000Z,7.2
2023-02-24T10:16:32.000Z,5.9
2023-02-24T10:17:48.000Z,6.9
2023-02-24T10:19:05.000Z,6.5
2023-02-24T10:20:21.000Z,6.3
2023-02-24T10:21:37.000Z,6
2023-02-24T10:22:53.000Z,5.6
2023-02-24T10:24:09.000Z,5.2
2023-02-24T10:25:25.000Z,5
2023-02-24T10:26:41.000Z,5.1
2023-02-24T10:27:58.000Z,5.2
2023-02-24T10:29:14.000Z,6.5
2023-02-24T10:30:29.000Z,5.3
2023-02-24T10:31:45.773Z,5.7
2023-02-24T10:33:01.000Z,6.2
2023-02-24T10:34:17.000Z,6.2
2023-02-24T10:35:33.000Z,6.1
2023-02-24T10:36:50.000Z,5.9
2023-02-24T10:38:05.000Z,5.4
2023-02-24T10:39:20.685Z,5.8
2023-02-24T10:40:36.000Z,6.1
2023-02-24T10:41:52.000Z,4.9
2023-02-24T10:43:07.000Z,7.1
2023-02-24T10:44:24.000Z,5.8
2023-02-24T10:45:39.000Z,5.4
2023-02-24T10:46:55.000Z,6.4
2023-02-24T10:48:11.000Z,6.3
2023-02-24T10:49:27.000Z,5.7
2023-02-24T10:50:43.000Z,6.2
2023-02-24T10:51:59.000Z,5.4
2023-02-24T10:53:16.000Z,6.1
2023-02-24T10:54:32.000Z,5.2
2023-02-24T10:55:48.000Z,5.4
2023-02-24T10:57:04.000Z,5.5
2023-02-24T10:58:20.000Z,6
2023-02-24T10:59:37.065Z,6.1
2023-02-24T11:00:52.000Z,5.7
2023-02-24T11:02:08.000Z,5.2
2023-02-24T11:03:24.000Z,5.6
2023-02-24T11:04:40.000Z,4.9
2023-02-24T11:05:56.000Z,5.8
2023-02-24T11:07:12.000Z,5
2023-02-24T11:08:28.000Z,5
2023-02-24T11:09:44.000Z,5.7
2023-02-24T11:10:59.000Z,5.1
2023-02-24T11:12:14.000Z,5
2023-02-24T11:13:29.000Z,5.8
2023-02-24T11:14:45.000Z,5.4
2023-02-24T11:16:01.000Z,5.8
2023-02-24T11:17:17.000Z,5.4
2023-02-24T11:18:34.000Z,4.5
2023-02-24T11:19:50.000Z,6.6
2023-02-24T11:21:06.000Z,5.3
2023-02-24T11:22:22.000Z,5.5
2023-02-24T11:23:38.000Z,6.7
2023-02-24T11:24:54.000Z,5.4
2023-02-24T11:26:11.214Z,5.7
2023-02-24T11:27:27.000Z,5
2023-02-24T11:28:43.000Z,5.3
2023-02-24T11:29:58.000Z,6.3
2023-02-24T11:31:14.000Z,5.6
2023-02-24T11:32:30.000Z,4.7
2023-02-24T11:33:46.000Z,5.8
2023-02-24T11:35:03.000Z,5.5
2023-02-24T11:36:19.000Z,5.6
2023-02-24T11:37:35.000Z,5.3
2023-02-24T11:38:50.718Z,5.4
2023-02-24T11:40:05.000Z,5.1
2023-02-24T11:41:21.000Z,5.4
2023-02-24T11:42:36.000Z,6
2023-02-24T11:43:52.352Z,5.3
2023-02-24T11:45:08.000Z,5.1
2023-02-24T11:46:24.000Z,4.6
2023-02-24T11:47:40.000Z,4.5
2023-02-24T11:48:56.000Z,4.1
2023-02-24T11:50:12.000Z,3.9
2023-02-24T11:51:29.000Z,3.1
2023-02-24T11:52:45.000Z,2.7
2023-02-24T11:54:01.522Z,2.3
2023-02-24T11:55:17.662Z,2.4
2023-02-24T11:56:33.000Z,2.4
2023-02-24T11:57:49.000Z,2.2
2023-02-24T11:59:05.000Z,2.5
2023-02-24T12:00:21.000Z,2.2
2023-02-24T12:01:37.000Z,2.3
2023-02-24T12:02:53.556Z,3.2
2023-02-24T12:04:09.000Z,2.8
2023-02-24T12:05:25.000Z,2.5
2023-02-24T12:06:42.000Z,2.5
2023-02-24T12:07:57.000Z,2.8
2023-02-24T12:09:13.000Z,2.9
2023-02-24T12:10:28.000Z,2.3
2023-02-24T12:11:44.000Z,2.9
2023-02-24T12:12:59.797Z,3.6
2023-02-24T12:14:14.000Z,2.6
2023-02-24T12:15:30.000Z,3.2
2023-02-24T12:16:47.000Z,3
2023-02-24T12:18:03.000Z,3.4
2023-02-24T12:19:19.537Z,3.4
2023-02-24T12:20:35.680Z,4.2
2023-02-24T12:21:51.000Z,3
2023-02-24T12:23:07.000Z,4.4
2023-02-24T12:24:23.000Z,2.8
2023-02-24T12:25:40.000Z,3.5
2023-02-24T12:26:56.402Z,4
2023-02-24T12:28:12.000Z,3.4
2023-02-24T12:29:28.000Z,3.9
2023-02-24T12:30:43.862Z,3.9
2023-02-24T12:31:59.000Z,3.9
2023-02-24T12:33:15.000Z,5.4
2023-02-24T12:34:32.000Z,3.3
2023-02-24T12:35:48.447Z,3.8
2023-02-24T12:37:04.000Z,3.8
2023-02-24T12:38:20.000Z,3.4
2023-02-24T12:39:35.000Z,3.6
2023-02-24T12:40:51.073Z,3.1
2023-02-24T12:42:07.215Z,2.9
2023-02-24T12:43:23.000Z,3.2
2023-02-24T12:44:39.000Z,3.2
2023-02-24T12:45:55.000Z,3
2023-02-24T12:47:11.000Z,3.5
2023-02-24T12:48:27.000Z,3.3
2023-02-24T12:49:43.000Z,3.9
2023-02-24T12:51:00.000Z,2.5
2023-02-24T12:52:16.000Z,2.6
2023-02-24T12:53:32.000Z,2.9
2023-02-24T12:54:48.000Z,3.1
2023-02-24T12:56:04.819Z,3.4
2023-02-24T12:57:19.000Z,2.9
2023-02-24T12:58:36.121Z,3.3
2023-02-24T12:59:52.000Z,2.1
2023-02-24T13:01:08.000Z,2.1
2023-02-24T13:02:24.000Z,1.9
2023-02-24T13:03:40.000Z,1.7
2023-02-24T13:04:56.000Z,1.7
2023-02-24T13:06:11.000Z,2.3
2023-02-24T13:07:26.000Z,1.7
2023-02-24T13:08:42.000Z,1.9
2023-02-24T13:09:57.000Z,2.3
2023-02-24T13:11:12.000Z,2.6
2023-02-24T13:12:27.000Z,2.8
2023-02-24T13:13:43.000Z,2.2
2023-02-24T13:14:59.000Z,2.3
2023-02-24T13:16:16.297Z,2.3
2023-02-24T13:17:32.000Z,2.3
2023-02-24T13:18:48.000Z,2.6
2023-02-24T13:20:04.000Z,2.6
2023-02-24T13:21:20.000Z,1.7
2023-02-24T13:22:36.000Z,1.7
2023-02-24T13:23:52.000Z,1.6
2023-02-24T13:25:09.000Z,1.9
2023-02-24T13:26:25.000Z,2
2023-02-24T13:27:41.000Z,1.8
2023-02-24T13:28:56.000Z,1.9
2023-02-24T13:30:12.000Z,2
2023-02-24T13:31:29.058Z,1.9
2023-02-24T13:32:44.000Z,1.8
2023-02-24T13:34:01.000Z,2
2023-02-24T13:35:17.000Z,2.2
2023-02-24T13:36:33.000Z,1.5
2023-02-24T13:37:48.000Z,2.6
2023-02-24T13:39:03.000Z,1.6
2023-02-24T13:40:18.000Z,2.2
2023-02-24T13:41:34.000Z,2
2023-02-24T13:42:50.000Z,1.9
2023-02-24T13:44:06.593Z,2.3
2023-02-24T13:45:22.737Z,1.9
2023-02-24T13:46:38.000Z,1.8
2023-02-24T13:47:54.000Z,2
2023-02-24T13:49:11.180Z,1.6
2023-02-24T13:50:27.000Z,1.6
2023-02-24T13:51:43.000Z,1.9
2023-02-24T13:52:59.000Z,1.8
2023-02-24T13:54:15.000Z,1.2
2023-02-24T13:55:31.000Z,1.9
2023-02-24T13:56:47.000Z,1.7
2023-02-24T13:58:02.000Z,1.5
2023-02-24T13:59:19.000Z,1.8
2023-02-24T14:00:35.000Z,2.1
2023-02-24T14:01:51.000Z,2.3
2023-02-24T14:03:07.000Z,1.9
2023-02-24T14:04:23.000Z,2.2
2023-02-24T14:05:39.000Z,2.1
2023-02-24T14:06:56.000Z,2.4
2023-02-24T14:08:11.000Z,1.9
2023-02-24T14:09:26.564Z,2.2
2023-02-24T14:10:42.000Z,2.1
2023-02-24T14:11:57.000Z,2.2
2023-02-24T14:13:12.000Z,2.3
2023-02-24T14:14:28.000Z,2
2023-02-24T14:15:45.000Z,2.4
2023-02-24T14:17:00.501Z,2.9
2023-02-24T14:18:16.000Z,2.4
2023-02-24T14:19:32.000Z,2
2023-02-24T14:20:48.000Z,2.5
2023-02-24T14:22:04.000Z,2.6
2023-02-24T14:23:21.237Z,3.1
2023-02-24T14:24:37.000Z,3.1
2023-02-24T14:25:53.000Z,1.9
2023-02-24T14:27:09.000Z,2.2
2023-02-24T14:28:25.000Z,3.2
2023-02-24T14:29:41.000Z,3.2
2023-02-24T14:30:57.000Z,3.8
2023-02-24T14:32:14.000Z,2.6
2023-02-24T14:33:29.000Z,3
2023-02-24T14:34:45.000Z,3.2
2023-02-24T14:36:01.000Z,2.8
2023-02-24T14:37:17.000Z,2.8
2023-02-24T14:38:32.000Z,2.8
2023-02-24T14:39:47.000Z,3.7
2023-02-24T14:41:03.000Z,2.9
2023-02-24T14:42:18.000Z,3.1
2023-02-24T14:43:34.000Z,3.1
2023-02-24T14:44:50.000Z,2.6
2023-02-24T14:46:06.000Z,3.7
2023-02-24T14:47:22.000Z,3.7
2023-02-24T14:48:39.000Z,4.2
2023-02-24T14:49:55.000Z,3.6
2023-02-24T14:51:11.000Z,3
2023-02-24T14:52:27.000Z,3.2
2023-02-24T14:53:43.000Z,4
2023-02-24T14:54:59.000Z,3.5
2023-02-24T14:56:15.000Z,3
2023-02-24T14:57:32.000Z,2.7
2023-02-24T14:58:47.424Z,2.6
2023-02-24T15:00:03.000Z,3.2
2023-02-24T15:01:19.000Z,3
2023-02-24T15:02:35.000Z,3.8
2023-02-24T15:03:51.000Z,3.5
2023-02-24T15:05:07.000Z,2.7
2023-02-24T15:06:24.000Z,2.7
2023-02-24T15:07:39.000Z,2.8
2023-02-24T15:08:54.000Z,3
2023-02-24T15:10:10.000Z,2.8
2023-02-24T15:11:26.917Z,3.6
2023-02-24T15:12:43.061Z,3.5
2023-02-24T15:13:58.000Z,3.5
2023-02-24T15:15:15.000Z,3.4
2023-02-24T15:16:31.000Z,2.7
2023-02-24T15:17:47.642Z,3.1
2023-02-24T15:19:03.000Z,3.3
2023-02-24T15:20:19.000Z,3
2023-02-24T15:21:36.075Z,3.2
2023-02-24T15:22:51.000Z,3.5
2023-02-24T15:24:08.000Z,3.8
2023-02-24T15:25:23.000Z,3
2023-02-24T15:26:39.000Z,3.7
2023-02-24T15:27:55.000Z,4.5
2023-02-24T15:29:11.000Z,4.6
2023-02-24T15:30:27.000Z,5
2023-02-24T15:31:44.000Z,4.6
2023-02-24T15:33:00.000Z,5.1
2023-02-24T15:34:15.584Z,4.3
2023-02-24T15:35:30.000Z,3.9
2023-02-24T15:36:45.000Z,3.9
2023-02-24T15:38:00.000Z,4.1
2023-02-24T15:39:17.000Z,3.7
2023-02-24T15:40:33.000Z,4.3
2023-02-24T15:41:49.000Z,5.3
2023-02-24T15:43:05.000Z,5.2
2023-02-24T15:44:21.000Z,4.8
2023-02-24T15:45:37.000Z,5.1
2023-02-24T15:46:53.000Z,5.1
2023-02-24T15:48:10.000Z,5.4
2023-02-24T15:49:26.378Z,5.1
2023-02-24T15:50:42.527Z,5.2
2023-02-24T15:51:58.000Z,4.7
2023-02-24T15:53:14.000Z,5
2023-02-24T15:54:29.000Z,4.9
2023-02-24T15:57:02.000Z,5.5
2023-02-24T15:58:18.000Z,5.7
2023-02-24T15:59:34.000Z,5.8
2023-02-24T16:00:50.000Z,6.5
2023-02-24T16:02:06.851Z,4.7
2023-02-24T16:03:23.005Z,6.8
2023-02-24T16:04:37.000Z,5.4
2023-02-24T16:05:53.000Z,5.7
2023-02-24T16:07:09.000Z,4.5
2023-02-24T16:08:24.656Z,4.9
2023-02-24T16:09:39.000Z,4.6
2023-02-24T16:10:55.000Z,5.2
2023-02-24T16:12:11.000Z,4.9
2023-02-24T16:13:28.000Z,4.6
2023-02-24T16:14:44.000Z,4.5
2023-02-24T16:16:00.000Z,4.8
2023-02-24T16:17:16.000Z,4.2
2023-02-24T16:18:32.000Z,4.2
2023-02-24T16:19:48.000Z,4.3
2023-02-24T16:21:04.000Z,4.8
2023-02-24T16:22:21.000Z,4.9
2023-02-24T16:23:37.000Z,5.1
2023-02-24T16:24:53.000Z,4.9
2023-02-24T16:26:08.000Z,4.7
2023-02-24T16:27:24.000Z,4.2
2023-02-24T16:28:40.000Z,4.3
2023-02-24T16:29:56.000Z,4.4
2023-02-24T16:31:13.000Z,4.2
2023-02-24T16:32:29.000Z,5.4
2023-02-24T16:33:45.000Z,5
2023-02-24T16:35:00.000Z,4.7
2023-02-24T16:36:15.000Z,5.3
2023-02-24T16:37:31.000Z,4.4
2023-02-24T16:38:47.000Z,5.7
2023-02-24T16:40:04.000Z,4.7
2023-02-24T16:41:20.000Z,5
2023-02-24T16:42:36.000Z,4.1
2023-02-24T16:43:52.000Z,5
2023-02-24T16:45:08.000Z,4.9
2023-02-24T16:46:24.000Z,3.9
2023-02-24T16:47:41.000Z,4.7
2023-02-24T16:48:57.000Z,4.9
2023-02-24T16:50:13.531Z,4.3
2023-02-24T16:51:29.000Z,4.4
2023-02-24T16:52:44.000Z,5.7
2023-02-24T16:54:00.000Z,4.4
2023-02-24T16:55:16.000Z,4.8
2023-02-24T16:56:33.000Z,4.4
2023-02-24T16:57:49.000Z,4.3
2023-02-24T16:59:05.000Z,4
2023-02-24T17:00:21.000Z,4.8
2023-02-24T17:01:36.000Z,5.4
2023-02-24T17:02:51.000Z,4.2
2023-02-24T17:04:06.000Z,4.5
2023-02-24T17:05:22.000Z,5
2023-02-24T17:06:37.000Z,4.5
2023-02-24T17:07:52.000Z,4.5
2023-02-24T17:09:08.000Z,5.6
2023-02-24T17:10:25.010Z,5.8
2023-02-24T17:11:40.000Z,4.7
2023-02-24T17:12:57.000Z,5
2023-02-24T17:14:13.000Z,5.3
2023-02-24T17:15:29.000Z,5
2023-02-24T17:16:45.000Z,4.4
2023-02-24T17:18:01.000Z,4.7
2023-02-24T17:19:17.000Z,5.2
2023-02-24T17:20:33.000Z,4.9
2023-02-24T17:21:50.000Z,5.3
2023-02-24T17:23:06.000Z,4.7
2023-02-24T17:24:21.621Z,4.7
2023-02-24T17:25:37.000Z,4.8
2023-02-24T17:26:53.000Z,3.9
2023-02-24T17:28:09.000Z,5.1
2023-02-24T17:29:25.000Z,4.5
2023-02-24T17:30:42.000Z,4.7
2023-02-24T17:31:58.000Z,5.4
2023-02-24T17:33:13.000Z,5.4
2023-02-24T17:34:28.000Z,5.1
2023-02-24T17:35:44.000Z,5
2023-02-24T17:36:59.000Z,4.9
2023-02-24T17:38:15.000Z,5.4
2023-02-24T17:39:31.000Z,5.8
2023-02-24T17:40:47.000Z,4.8
2023-02-24T17:42:03.000Z,5
2023-02-24T17:43:19.000Z,5.2
2023-02-24T17:44:35.000Z,5.6
2023-02-24T17:45:51.000Z,5
2023-02-24T17:47:08.000Z,6.2
2023-02-24T17:48:24.000Z,5.6
2023-02-24T17:49:40.000Z,4.8
2023-02-24T17:50:56.000Z,5
2023-02-24T17:52:12.000Z,4.8
2023-02-24T17:53:28.000Z,5.4
2023-02-24T17:54:43.000Z,5.4
2023-02-24T17:56:00.000Z,5.4
2023-02-24T17:57:16.000Z,4.4
2023-02-24T17:58:32.000Z,6
2023-02-24T17:59:48.000Z,5.7
2023-02-24T18:01:04.000Z,5.8
2023-02-24T18:02:20.000Z,5
2023-02-24T18:03:36.000Z,4.7
2023-02-24T18:04:51.000Z,4.8
2023-02-24T18:06:06.000Z,5.2
2023-02-24T18:07:21.000Z,5.1
2023-02-24T18:08:37.000Z,5.2